Porto Ferreira, Brazil
Current Conditions -  °F | °C
As of 12:00 PM on Wednesday 22 Oct 2014 (Local Time) from SBYS Reporting Station
Clear Clear  
Wind Chill: 82°   Ceiling: Unl
Heat Index: 82°   Visibility: 6mi
Dew Point: 57°   Wind: 6mph
Humidity: 42%   Direction: 80°E
Pressure: 30.12"   Gusts: NA
Location:  21.85°S, 47.48°W
Report Text: SBYS 221400Z 08005KT CAVOK 28/14 Q1020
Loading
Personal Weather Stations






























Interactive Weather Map
Tropical Storm Tracking
New forecast layout! Learn more

10-Day Weather Forecast

Advertisements
Track Severe Weather on mobile